createdAt,value
2022-11-28T00:01:18.779Z,26.80
2022-11-28T00:03:45.658Z,26.90
2022-11-28T00:06:12.684Z,24.83
2022-11-28T00:08:39.634Z,27.77
2022-11-28T00:11:07.517Z,26.00
2022-11-28T00:13:34.593Z,26.57
2022-11-28T00:16:02.282Z,23.67
2022-11-28T00:18:29.235Z,20.17
2022-11-28T00:21:00.936Z,17.73
2022-11-28T00:23:28.267Z,16.33
2022-11-28T00:25:59.337Z,18.03
2022-11-28T00:28:26.141Z,14.13
2022-11-28T00:30:52.983Z,14.53
2022-11-28T00:33:19.863Z,15.17
2022-11-28T00:35:46.745Z,15.63
2022-11-28T00:38:13.495Z,16.37
2022-11-28T00:40:40.327Z,17.33
2022-11-28T00:43:07.306Z,16.03
2022-11-28T00:45:34.152Z,17.50
2022-11-28T00:48:01.037Z,18.47
2022-11-28T00:50:27.824Z,16.50
2022-11-28T00:52:54.568Z,16.40
2022-11-28T00:55:21.393Z,16.27
2022-11-28T00:57:48.202Z,19.40
2022-11-28T01:00:15.560Z,16.37
2022-11-28T01:02:42.374Z,16.63
2022-11-28T01:05:09.587Z,16.93
2022-11-28T01:07:36.486Z,16.73
2022-11-28T01:10:03.582Z,17.30
2022-11-28T01:12:30.342Z,16.80
2022-11-28T01:14:58.302Z,17.43
2022-11-28T01:17:25.097Z,17.17
2022-11-28T01:19:51.905Z,17.67
2022-11-28T01:22:18.665Z,20.13
2022-11-28T01:24:45.445Z,19.30
2022-11-28T01:27:12.245Z,19.50
2022-11-28T01:29:39.065Z,21.33
2022-11-28T01:32:05.846Z,20.40
2022-11-28T01:34:32.733Z,22.33
2022-11-28T01:37:00.211Z,21.93
2022-11-28T01:39:27.008Z,21.77
2022-11-28T01:41:53.915Z,23.50
2022-11-28T01:44:20.648Z,24.03
2022-11-28T01:46:47.562Z,22.77
2022-11-28T01:49:16.485Z,22.67
2022-11-28T01:51:46.278Z,23.30
2022-11-28T01:54:13.485Z,23.80
2022-11-28T01:56:57.221Z,26.03
2022-11-28T01:59:26.511Z,23.43
2022-11-28T02:01:53.441Z,25.27
2022-11-28T02:04:20.359Z,22.87
2022-11-28T02:06:47.161Z,23.23
2022-11-28T02:09:14.759Z,26.13
2022-11-28T02:12:05.485Z,25.77
2022-11-28T02:15:25.570Z,32.40
2022-11-28T02:18:18.184Z,33.63
2022-11-28T02:20:48.060Z,32.00
2022-11-28T02:23:41.895Z,32.30
2022-11-28T02:26:19.638Z,35.03
2022-11-28T02:29:08.626Z,34.00
2022-11-28T02:31:54.369Z,35.80
2022-11-28T02:34:31.890Z,36.07
2022-11-28T02:37:07.868Z,38.17
2022-11-28T02:39:52.134Z,39.70
2022-11-28T02:42:30.773Z,37.03
2022-11-28T02:45:07.283Z,37.93
2022-11-28T02:47:35.908Z,38.87
2022-11-28T02:50:09.589Z,40.47
2022-11-28T02:52:51.041Z,38.27
2022-11-28T02:55:17.856Z,38.73
2022-11-28T02:57:52.116Z,38.27
2022-11-28T03:00:32.589Z,42.73
2022-11-28T03:03:10.949Z,42.50
2022-11-28T03:05:52.497Z,39.97
2022-11-28T03:08:30.573Z,41.73
2022-11-28T03:11:08.841Z,44.90
2022-11-28T03:13:42.674Z,48.83
2022-11-28T03:16:09.485Z,53.27
2022-11-28T03:18:42.417Z,57.60
2022-11-28T03:21:17.311Z,51.90
2022-11-28T03:23:52.245Z,54.67
2022-11-28T03:26:25.154Z,54.73
2022-11-28T03:29:01.685Z,58.30
2022-11-28T03:31:34.456Z,60.10
2022-11-28T03:34:01.353Z,63.73
2022-11-28T03:36:33.213Z,62.83
2022-11-28T03:39:03.173Z,61.13
2022-11-28T03:41:39.517Z,73.70
2022-11-28T03:44:08.232Z,70.03
2022-11-28T03:46:41.800Z,62.00
2022-11-28T03:49:09.615Z,70.03
2022-11-28T03:51:51.907Z,74.57
2022-11-28T03:54:26.015Z,74.50
2022-11-28T03:57:00.998Z,73.10
2022-11-28T03:59:35.420Z,73.03
2022-11-28T04:02:03.725Z,67.33
2022-11-28T04:05:12.552Z,56.13
2022-11-28T04:08:02.677Z,49.30
2022-11-28T04:10:46.200Z,42.87
2022-11-28T04:13:31.571Z,41.03
2022-11-28T04:16:21.395Z,39.10
2022-11-28T04:18:53.707Z,30.83
2022-11-28T04:21:26.158Z,29.27
2022-11-28T04:23:55.229Z,30.73
2022-11-28T04:26:36.101Z,28.73
2022-11-28T04:29:06.739Z,28.97
2022-11-28T04:31:33.736Z,26.90
2022-11-28T04:34:03.579Z,28.23
2022-11-28T04:36:30.358Z,30.27
2022-11-28T04:38:57.501Z,31.83
2022-11-28T04:41:29.221Z,30.13
2022-11-28T04:44:06.205Z,33.73
2022-11-28T04:46:39.861Z,29.03
2022-11-28T04:49:06.671Z,29.67
2022-11-28T04:51:33.410Z,27.87
2022-11-28T04:54:14.350Z,28.27
2022-11-28T04:56:44.648Z,26.30
2022-11-28T04:59:11.593Z,28.40
2022-11-28T05:01:38.605Z,30.70
2022-11-28T05:04:05.608Z,29.83
2022-11-28T05:06:34.500Z,35.87
2022-11-28T05:09:01.312Z,39.63
2022-11-28T05:11:28.204Z,40.37
2022-11-28T05:13:55.179Z,38.03
2022-11-28T05:16:22.738Z,41.37
2022-11-28T05:18:49.741Z,41.87
2022-11-28T05:21:16.613Z,40.70
2022-11-28T05:23:44.266Z,41.07
2022-11-28T05:26:18.834Z,39.30
2022-11-28T05:28:46.731Z,41.20
2022-11-28T05:31:13.703Z,40.37
2022-11-28T05:33:40.607Z,47.10
2022-11-28T05:36:13.240Z,40.47
2022-11-28T05:38:40.771Z,43.47
2022-11-28T05:41:07.737Z,44.33
2022-11-28T05:43:34.573Z,41.00
2022-11-28T05:46:01.404Z,40.57
2022-11-28T05:48:28.205Z,43.73
2022-11-28T05:50:55.020Z,37.97
2022-11-28T05:53:22.812Z,39.23
2022-11-28T05:55:49.662Z,41.87
2022-11-28T05:58:16.437Z,40.13
2022-11-28T06:00:43.266Z,40.80
2022-11-28T06:03:10.222Z,39.83
2022-11-28T06:05:43.814Z,44.17
2022-11-28T06:08:11.979Z,49.33
2022-11-28T06:10:38.832Z,44.37
2022-11-28T06:13:05.777Z,41.60
2022-11-28T06:15:37.507Z,43.73
2022-11-28T06:18:05.406Z,42.37
2022-11-28T06:20:32.167Z,41.93
2022-11-28T06:22:59.110Z,39.67
2022-11-28T06:25:25.918Z,41.37
2022-11-28T06:27:52.672Z,40.30
2022-11-28T06:30:19.477Z,44.53
2022-11-28T06:32:46.292Z,36.40
2022-11-28T06:35:13.101Z,41.20
2022-11-28T06:37:39.917Z,33.93
2022-11-28T06:40:07.362Z,30.10
2022-11-28T06:42:37.092Z,31.63
2022-11-28T06:45:07.565Z,32.50
2022-11-28T06:47:34.357Z,32.50
2022-11-28T06:50:01.163Z,33.53
2022-11-28T06:52:28.023Z,30.73
2022-11-28T06:54:55.153Z,30.57
2022-11-28T06:57:22.359Z,29.60
2022-11-28T06:59:50.690Z,31.80
2022-11-28T07:02:17.572Z,35.60
2022-11-28T07:04:44.577Z,31.43
2022-11-28T07:07:16.080Z,34.13
2022-11-28T07:09:43.748Z,31.73
2022-11-28T07:12:10.774Z,31.03
2022-11-28T07:14:38.302Z,33.33
2022-11-28T07:17:05.190Z,31.43
2022-11-28T07:19:31.974Z,41.70
2022-11-28T07:21:58.834Z,33.40
2022-11-28T07:24:25.700Z,37.57
2022-11-28T07:26:52.519Z,28.73
2022-11-28T07:29:19.541Z,34.37
2022-11-28T07:31:46.361Z,31.53
2022-11-28T07:34:13.306Z,36.27
2022-11-28T07:36:40.110Z,35.60
2022-11-28T07:39:08.691Z,33.43
2022-11-28T07:41:35.548Z,30.67
2022-11-28T07:44:03.139Z,29.60
2022-11-28T07:46:31.087Z,30.47
2022-11-28T07:48:57.991Z,31.80
2022-11-28T07:51:26.956Z,37.43
2022-11-28T07:53:53.816Z,36.93
2022-11-28T07:56:22.571Z,26.03
2022-11-28T07:58:50.412Z,36.57
2022-11-28T08:01:22.633Z,28.87
2022-11-28T08:03:49.511Z,33.70
2022-11-28T08:06:16.804Z,29.73
2022-11-28T08:08:43.898Z,34.57
2022-11-28T08:11:10.940Z,28.43
2022-11-28T08:13:38.105Z,23.17
2022-11-28T08:16:09.180Z,25.47
2022-11-28T08:18:36.106Z,29.43
2022-11-28T08:21:07.750Z,35.43
2022-11-28T08:23:34.950Z,36.07
2022-11-28T08:26:03.045Z,35.47
2022-11-28T08:28:29.974Z,27.27
2022-11-28T08:30:56.833Z,28.20
2022-11-28T08:33:24.732Z,36.00
2022-11-28T08:35:54.533Z,24.90
2022-11-28T08:38:21.306Z,34.03
2022-11-28T08:40:48.097Z,25.17
2022-11-28T08:43:14.876Z,28.53
2022-11-28T08:45:41.686Z,29.83
2022-11-28T08:48:08.515Z,29.23
2022-11-28T08:50:35.315Z,36.63
2022-11-28T08:53:07.663Z,30.43
2022-11-28T08:55:39.166Z,27.93
2022-11-28T08:58:08.673Z,29.60
2022-11-28T09:00:35.506Z,34.57
2022-11-28T09:03:02.343Z,28.60
2022-11-28T09:05:29.656Z,33.53
2022-11-28T09:07:56.660Z,31.13
2022-11-28T09:10:23.724Z,37.57
2022-11-28T09:12:51.041Z,31.20
2022-11-28T09:15:19.158Z,40.50
2022-11-28T09:17:46.588Z,37.30
2022-11-28T09:20:13.528Z,35.97
2022-11-28T09:22:42.582Z,30.27
2022-11-28T09:25:09.536Z,43.83
2022-11-28T09:27:36.361Z,37.07
2022-11-28T09:30:03.322Z,31.03
2022-11-28T09:32:30.169Z,37.67
2022-11-28T09:34:57.190Z,39.30
2022-11-28T09:37:24.029Z,38.53
2022-11-28T09:40:12.218Z,31.50
2022-11-28T09:42:44.075Z,35.17
2022-11-28T09:45:21.517Z,33.57
2022-11-28T09:47:56.656Z,31.27
2022-11-28T09:50:25.615Z,31.53
2022-11-28T09:53:15.949Z,39.77
2022-11-28T09:55:44.284Z,33.47
2022-11-28T09:58:48.587Z,35.10
2022-11-28T10:01:28.193Z,31.10
2022-11-28T10:04:18.801Z,27.20
2022-11-28T10:07:05.922Z,35.63
2022-11-28T10:09:45.050Z,36.33
2022-11-28T10:12:21.218Z,30.77
2022-11-28T10:14:57.827Z,35.47
2022-11-28T10:17:38.462Z,30.40
2022-11-28T10:20:23.458Z,31.03
2022-11-28T10:23:07.304Z,39.47
2022-11-28T10:25:35.512Z,31.23
2022-11-28T10:28:07.433Z,37.73
2022-11-28T10:30:36.406Z,36.60
2022-11-28T10:33:46.428Z,32.40
2022-11-28T10:36:47.169Z,37.30
2022-11-28T10:39:15.098Z,34.37
2022-11-28T10:42:07.129Z,38.53
2022-11-28T10:44:38.431Z,42.10
2022-11-28T10:47:28.229Z,47.60
2022-11-28T10:50:03.872Z,43.37
2022-11-28T10:52:59.013Z,39.67
2022-11-28T10:55:53.902Z,38.20
2022-11-28T10:58:25.749Z,42.63
2022-11-28T11:00:56.328Z,46.40
2022-11-28T11:03:30.205Z,49.87
2022-11-28T11:05:57.341Z,47.13
2022-11-28T11:08:25.066Z,54.13
2022-11-28T11:11:00.375Z,53.27
2022-11-28T11:13:48.306Z,50.57
2022-11-28T11:16:15.388Z,43.23
2022-11-28T11:18:46.652Z,56.07
2022-11-28T11:21:21.495Z,50.83
2022-11-28T11:23:49.366Z,52.43
2022-11-28T11:26:27.552Z,49.03
2022-11-28T11:28:54.477Z,51.87
2022-11-28T11:31:28.068Z,48.67
2022-11-28T11:34:05.349Z,43.30
2022-11-28T11:36:34.323Z,43.77
2022-11-28T11:39:13.096Z,49.23
2022-11-28T11:41:47.745Z,51.80
2022-11-28T11:44:14.534Z,48.57
2022-11-28T11:47:05.032Z,55.37
2022-11-28T11:49:38.552Z,43.73
2022-11-28T11:52:25.772Z,53.27
2022-11-28T11:55:02.793Z,47.57
2022-11-28T11:57:50.485Z,42.60
2022-11-28T12:00:25.663Z,45.07
2022-11-28T12:03:00.347Z,44.73
2022-11-28T12:05:46.437Z,35.07
2022-11-28T12:08:25.063Z,40.33
2022-11-28T12:10:55.468Z,35.27
2022-11-28T12:13:23.712Z,41.67
2022-11-28T12:16:30.169Z,40.60
2022-11-28T12:19:18.277Z,36.47
2022-11-28T12:22:00.221Z,41.30
2022-11-28T12:24:48.331Z,37.20
2022-11-28T12:27:46.422Z,38.80
2022-11-28T12:30:44.605Z,39.23
2022-11-28T12:33:50.512Z,38.83
2022-11-28T12:36:55.226Z,40.03
2022-11-28T12:39:24.522Z,37.17
2022-11-28T12:42:10.247Z,41.60
2022-11-28T12:44:51.604Z,41.83
2022-11-28T12:47:30.274Z,48.23
2022-11-28T12:50:16.523Z,47.63
2022-11-28T12:53:12.242Z,49.33
2022-11-28T12:55:48.142Z,49.47
2022-11-28T12:58:30.189Z,46.70
2022-11-28T13:01:11.663Z,48.77
2022-11-28T13:04:05.263Z,45.50
2022-11-28T13:06:37.996Z,49.37
2022-11-28T13:09:34.851Z,48.07
2022-11-28T13:12:16.784Z,45.27
2022-11-28T13:14:53.875Z,50.60
2022-11-28T13:17:24.999Z,52.50
2022-11-28T13:20:07.625Z,50.40
2022-11-28T13:23:03.022Z,45.80
2022-11-28T13:25:32.635Z,50.63
2022-11-28T13:28:05.036Z,45.33
2022-11-28T13:30:38.313Z,46.17
2022-11-28T13:33:37.429Z,45.10
2022-11-28T13:36:04.922Z,42.97
2022-11-28T13:39:12.379Z,45.53
2022-11-28T13:42:35.958Z,44.47
2022-11-28T13:44:53.582Z,47.07
2022-11-28T13:47:23.455Z,42.53
2022-11-28T13:49:50.336Z,41.23
2022-11-28T13:52:20.168Z,44.57
2022-11-28T13:54:54.217Z,54.27
2022-11-28T13:57:30.454Z,44.57
2022-11-28T14:00:07.008Z,48.97
2022-11-28T14:02:45.968Z,49.07
2022-11-28T14:05:45.480Z,53.00
2022-11-28T14:08:28.601Z,56.00
2022-11-28T14:11:24.228Z,51.33
2022-11-28T14:14:21.561Z,53.50
2022-11-28T14:17:20.893Z,48.70
2022-11-28T14:20:24.558Z,47.23
2022-11-28T14:23:00.438Z,42.80
2022-11-28T14:25:50.706Z,51.93
2022-11-28T14:28:27.125Z,43.03
2022-11-28T14:31:21.825Z,44.77
2022-11-28T14:33:48.736Z,42.53
2022-11-28T14:36:30.008Z,36.63
2022-11-28T14:39:16.437Z,42.03
2022-11-28T14:42:04.426Z,45.47
2022-11-28T14:44:54.663Z,45.27
2022-11-28T14:47:21.418Z,41.43
2022-11-28T14:49:48.699Z,45.17
2022-11-28T14:52:38.296Z,50.13
2022-11-28T14:55:12.376Z,39.77
2022-11-28T14:58:01.404Z,42.87
2022-11-28T15:00:52.898Z,40.77
2022-11-28T15:03:46.202Z,43.63
2022-11-28T15:06:18.092Z,43.47
2022-11-28T15:09:09.661Z,41.47
2022-11-28T15:11:36.530Z,43.80
2022-11-28T15:14:22.575Z,38.77
2022-11-28T15:16:53.121Z,41.37
2022-11-28T15:19:31.981Z,40.40
2022-11-28T15:21:59.561Z,34.97
2022-11-28T15:24:33.252Z,38.87
2022-11-28T15:27:09.190Z,42.63
2022-11-28T15:29:36.649Z,38.40
2022-11-28T15:32:03.667Z,46.50
2022-11-28T15:34:33.055Z,43.90
2022-11-28T15:37:14.413Z,36.97
2022-11-28T15:39:41.499Z,43.63
2022-11-28T15:42:14.633Z,43.30
2022-11-28T15:44:42.476Z,42.10
2022-11-28T15:47:19.985Z,43.70
2022-11-28T15:49:57.432Z,41.80
2022-11-28T15:52:24.250Z,45.10
2022-11-28T15:54:51.542Z,39.73
2022-11-28T15:57:20.077Z,39.17
2022-11-28T15:59:46.998Z,38.83
2022-11-28T16:02:23.614Z,39.13
2022-11-28T16:04:53.684Z,43.03
2022-11-28T16:07:20.569Z,38.20
2022-11-28T16:09:58.485Z,44.03
2022-11-28T16:12:25.581Z,42.40
2022-11-28T16:14:55.326Z,36.60
2022-11-28T16:17:31.626Z,44.20
2022-11-28T16:19:58.457Z,50.40
2022-11-28T16:22:36.123Z,36.83
2022-11-28T16:25:14.640Z,35.20
2022-11-28T16:27:42.745Z,33.70
2022-11-28T16:30:32.638Z,36.77
2022-11-28T16:32:59.462Z,36.87
2022-11-28T16:35:27.413Z,39.40
2022-11-28T16:38:14.211Z,40.00
2022-11-28T16:40:41.063Z,41.33
2022-11-28T16:43:36.309Z,37.43
2022-11-28T16:46:06.382Z,35.80
2022-11-28T16:48:34.913Z,39.80
2022-11-28T16:51:10.876Z,41.80
2022-11-28T16:53:44.545Z,47.33
2022-11-28T16:56:30.179Z,47.83
2022-11-28T16:59:16.016Z,35.67
2022-11-28T17:01:47.299Z,41.37
2022-11-28T17:04:23.925Z,38.63
2022-11-28T17:06:52.119Z,43.43
2022-11-28T17:09:19.018Z,41.90
2022-11-28T17:11:54.692Z,38.93
2022-11-28T17:14:21.524Z,41.67
2022-11-28T17:16:48.400Z,43.53
2022-11-28T17:19:15.326Z,38.43
2022-11-28T17:21:43.594Z,37.63
2022-11-28T17:24:21.405Z,45.33
2022-11-28T17:26:48.536Z,38.50
2022-11-28T17:29:15.609Z,41.17
2022-11-28T17:31:43.189Z,35.63
2022-11-28T17:34:16.921Z,36.30
2022-11-28T17:36:43.797Z,39.90
2022-11-28T17:39:11.545Z,37.20
2022-11-28T17:41:38.561Z,42.70
2022-11-28T17:44:05.742Z,44.20
2022-11-28T17:46:32.557Z,38.60
2022-11-28T17:48:59.361Z,41.90
2022-11-28T17:51:26.308Z,39.43
2022-11-28T17:53:53.141Z,35.10
2022-11-28T17:56:20.061Z,35.13
2022-11-28T17:58:46.941Z,32.67
2022-11-28T18:01:16.467Z,27.57
2022-11-28T18:03:43.337Z,30.07
2022-11-28T18:06:17.413Z,28.70
2022-11-28T18:08:45.486Z,28.10
2022-11-28T18:11:12.625Z,34.43
2022-11-28T18:13:40.339Z,32.50
2022-11-28T18:16:07.579Z,33.40
2022-11-28T18:18:34.608Z,30.63
2022-11-28T18:21:01.402Z,33.47
2022-11-28T18:23:28.237Z,36.43
2022-11-28T18:25:55.022Z,29.10
2022-11-28T18:28:22.158Z,31.20
2022-11-28T18:30:49.048Z,37.93
2022-11-28T18:33:16.053Z,35.73
2022-11-28T18:35:42.876Z,39.67
2022-11-28T18:38:11.899Z,29.90
2022-11-28T18:40:39.019Z,30.73
2022-11-28T18:43:05.886Z,28.70
2022-11-28T18:45:33.085Z,29.80
2022-11-28T18:48:00.491Z,32.07
2022-11-28T18:50:27.555Z,26.37
2022-11-28T18:52:54.805Z,26.70
2022-11-28T18:55:21.659Z,27.17
2022-11-28T18:57:48.528Z,28.10
2022-11-28T19:00:15.835Z,33.43
2022-11-28T19:02:42.683Z,31.07
2022-11-28T19:05:09.540Z,36.90
2022-11-28T19:07:36.407Z,40.37
2022-11-28T19:10:03.509Z,37.23
2022-11-28T19:12:30.306Z,33.47
2022-11-28T19:15:01.837Z,32.67
2022-11-28T19:17:29.542Z,30.60
2022-11-28T19:19:56.317Z,25.13
2022-11-28T19:22:23.076Z,27.77
2022-11-28T19:24:49.899Z,31.80
2022-11-28T19:27:16.710Z,33.47
2022-11-28T19:29:43.957Z,31.30
2022-11-28T19:32:11.268Z,33.37
2022-11-28T19:34:38.120Z,33.10
2022-11-28T19:37:04.917Z,28.67
2022-11-28T19:39:31.743Z,29.27
2022-11-28T19:41:58.582Z,28.47
2022-11-28T19:44:28.917Z,31.33
2022-11-28T19:46:56.393Z,31.57
2022-11-28T19:49:24.088Z,38.67
2022-11-28T19:51:50.958Z,35.90
2022-11-28T19:54:19.744Z,44.57
2022-11-28T19:56:47.251Z,30.77
2022-11-28T19:59:14.113Z,29.37
2022-11-28T20:01:41.004Z,33.03
2022-11-28T20:04:07.976Z,34.70
2022-11-28T20:06:34.835Z,27.63
2022-11-28T20:09:04.318Z,35.80
2022-11-28T20:11:32.707Z,31.43
2022-11-28T20:14:04.482Z,29.63
2022-11-28T20:16:31.903Z,32.10
2022-11-28T20:19:00.464Z,35.20
2022-11-28T20:21:28.049Z,32.17
2022-11-28T20:23:56.306Z,27.57
2022-11-28T20:26:26.209Z,43.03
2022-11-28T20:28:54.126Z,25.87
2022-11-28T20:31:23.105Z,25.17
2022-11-28T20:33:50.475Z,47.40
2022-11-28T20:36:19.147Z,33.57
2022-11-28T20:38:46.048Z,30.90
2022-11-28T20:41:13.850Z,32.97
2022-11-28T20:43:40.807Z,23.63
2022-11-28T20:46:15.647Z,23.27
2022-11-28T20:48:43.865Z,24.80
2022-11-28T20:51:13.385Z,25.97
2022-11-28T20:53:41.541Z,24.00
2022-11-28T20:56:15.722Z,25.17
2022-11-28T20:58:42.656Z,24.47
2022-11-28T21:01:16.505Z,29.17
2022-11-28T21:03:43.714Z,35.87
2022-11-28T21:06:11.742Z,36.40
2022-11-28T21:08:38.654Z,42.50
2022-11-28T21:11:30.966Z,36.00
2022-11-28T21:14:04.521Z,26.60
2022-11-28T21:16:32.851Z,30.33
2022-11-28T21:19:03.275Z,28.37
2022-11-28T21:21:31.302Z,31.33
2022-11-28T21:23:59.526Z,24.07
2022-11-28T21:26:30.247Z,34.10
2022-11-28T21:28:59.244Z,31.83
2022-11-28T21:31:27.562Z,46.30
2022-11-28T21:33:55.728Z,46.43
2022-11-28T21:36:22.868Z,35.90
2022-11-28T21:38:53.357Z,30.93
2022-11-28T21:41:20.406Z,32.50
2022-11-28T21:43:47.576Z,29.30
2022-11-28T21:46:14.518Z,31.27
2022-11-28T21:48:42.065Z,32.70
2022-11-28T21:51:20.086Z,31.33
2022-11-28T21:53:46.989Z,34.23
2022-11-28T21:56:13.871Z,28.90
2022-11-28T21:58:40.659Z,27.67
2022-11-28T22:01:12.107Z,34.70
2022-11-28T22:03:39.682Z,32.00
2022-11-28T22:06:08.385Z,42.47
2022-11-28T22:08:35.624Z,42.00
2022-11-28T22:11:08.512Z,50.70
2022-11-28T22:13:35.488Z,39.47
2022-11-28T22:16:02.312Z,35.67
2022-11-28T22:18:29.860Z,41.20
2022-11-28T22:21:22.393Z,38.10
2022-11-28T22:23:53.165Z,34.60
2022-11-28T22:26:20.001Z,32.57
2022-11-28T22:28:53.181Z,44.80
2022-11-28T22:31:20.734Z,66.70
2022-11-28T22:33:49.009Z,38.30
2022-11-28T22:36:17.390Z,41.83
2022-11-28T22:38:44.424Z,34.73
2022-11-28T22:41:12.753Z,39.13
2022-11-28T22:43:39.697Z,39.47
2022-11-28T22:46:06.866Z,48.53
2022-11-28T22:48:34.487Z,36.87
2022-11-28T22:51:09.282Z,41.57
2022-11-28T22:53:36.198Z,43.93
2022-11-28T22:56:07.315Z,64.50
2022-11-28T22:58:42.328Z,29.10
2022-11-28T23:01:19.882Z,39.73
2022-11-28T23:03:46.726Z,36.90
2022-11-28T23:06:32.950Z,41.37
2022-11-28T23:09:00.504Z,34.07
2022-11-28T23:11:28.885Z,29.07
2022-11-28T23:13:55.747Z,24.00
2022-11-28T23:16:27.592Z,21.17
2022-11-28T23:18:59.036Z,25.10
2022-11-28T23:21:26.226Z,37.00
2022-11-28T23:23:54.435Z,34.47
2022-11-28T23:26:22.984Z,26.40
2022-11-28T23:28:51.101Z,45.70
2022-11-28T23:31:25.761Z,23.80
2022-11-28T23:33:53.720Z,58.50
2022-11-28T23:36:21.578Z,95.27
2022-11-28T23:38:49.683Z,86.77
2022-11-28T23:41:16.490Z,44.13
2022-11-28T23:43:43.404Z,20.97
2022-11-28T23:46:10.639Z,47.87
2022-11-28T23:48:37.689Z,52.37
2022-11-28T23:51:06.296Z,44.90
2022-11-28T23:53:33.935Z,29.20
2022-11-28T23:56:21.211Z,39.90
2022-11-28T23:58:48.128Z,58.13
